Airfield :







YOU CAN JOIN US ON...

 
LOGIN :

Register | Disclaimer

   EN    FR    IT 

 









Legend :    VFR   Marginal VFR   IFR   Intensive IFR   Very Intensive IFR
Visi :
Ceiling :
>= 8 km
>= 3000ft
5 to 8 km
1000 to 3000 ft
1500m to 5 km
500 to 1000 ft
800 to 1500m
200 to 500 ft
< 800m
< 200 ft
Symbols :   Thunderstorms  Fog  Heavy snow  Heavy precipitations  Wind > 20 kt






- Airport Elevation : 71 ft
- IATA code : YBC


CYBC - Baie Comeau

CURRENT METAR :
  • 171200Z AUTO 32008G20KT 9SM CLR M17/M23 A3010 RMK SLP195

EXPIRED METARs :
  • 171100Z AUTO 31008KT 9SM SCT095 M16/M22 A3009 RMK SLP193
  • 171000Z AUTO 32007G17KT 290V360 9SM OVC090 M15/M22 A3007 RMK SLP185

TAF TAF CYBC
Valid from the 17 at 08:00 until the 17 at 20:00 UTC


170738Z 1708/1720 30010G20KT P6SM BKN080
BECMG 1711/1713 SKC RMK FCST BASED ON AUTO OBS. NXT FCST BY 171400Z



MET'MAP, your aeronautical weather chart ! - Copyright ORBIFLY December 2007 - Disclaimer

ORBIFLY MET'MAP TEAM :

Programming & Development : Alexandra Zaïnal
Concept & original design : Baudouin d'Aumeries
Assistance for programming : Marc-Olivier Méhu
Technical & hardware support : Manuel Goepfert

Contact : metmap@orbifly.com




SOURCES & CREDITS :

   NOAA